Terminal Aerodrome Forecast
Issued by NWS Grand Rapids, MI

Home | Current Version | Previous Version | Text Only | Print | Product List | Glossary On
Versions: 1 2 3 4 5 6 7 8 9 10 11 12 13 14 15 16
458
FTUS43 KGRR 250202 AAB
TAFGRR
TAF AMD
KGRR 250202Z 2502/2524 21014G25KT P6SM SCT150
     FM250400 22012KT P6SM OVC100 WS020/25050KT
     FM250600 24010KT 6SM -SHRA OVC015
     FM250900 29012KT P6SM OVC007
     FM251500 30015G25KT 4SM -DZ BR OVC012=

USA.gov is the U.S. government's official web portal to all federal, state and local government web resources and services.